Time;durP1;ratioP1;P1;durP2;ratioP2;P2;SDS_P1;SDS_P2;PMS_P1;PMS_P2;Temp;Humidity;BMP_temperature;BMP_pressure;BME280_temperature;BME280_humidity;BME280_pressure;Samples;Min_cycle;Max_cycle;Signal;HPM_P1;HPM_P2
2023/05/12 00:00:41;;;;;;;8.05;5.72;;;;;;;-140.66;100.00;55571.53;5139391;28;20016;-80
2023/05/12 00:03:27;;;;;;;8.98;4.97;;;;;;;-140.66;100.00;55571.53;5125865;28;20027;-80
2023/05/12 00:06:13;;;;;;;7.25;5.32;;;;;;;-140.66;100.00;55571.53;5117525;28;20034;-79
2023/05/12 00:08:58;;;;;;;7.72;5.60;;;;;;;-140.66;100.00;55571.53;5117401;28;20047;-79
2023/05/12 00:11:47;;;;;;;6.90;5.63;;;;;;;-140.66;100.00;55571.53;5117069;28;20042;-79
2023/05/12 00:14:34;;;;;;;11.30;6.38;;;;;;;-140.66;100.00;55571.53;5103304;28;20030;-79
2023/05/12 00:17:20;;;;;;;8.32;5.50;;;;;;;-140.66;100.00;55571.53;5128739;28;20092;-78
2023/05/12 00:20:06;;;;;;;8.43;6.03;;;;;;;-140.66;100.00;55571.53;5120125;28;20538;-79
2023/05/12 00:22:52;;;;;;;9.85;6.22;;;;;;;-140.66;100.00;55571.53;5117734;28;20481;-79
2023/05/12 00:25:38;;;;;;;9.38;6.32;;;;;;;-140.66;100.00;55571.53;5116993;28;20471;-79
2023/05/12 00:28:23;;;;;;;8.77;5.72;;;;;;;-140.66;100.00;55571.53;5116794;28;20172;-79
2023/05/12 00:31:09;;;;;;;9.50;5.93;;;;;;;-140.66;100.00;55571.53;5103195;28;20015;-80
2023/05/12 00:33:55;;;;;;;8.10;5.57;;;;;;;-140.66;100.00;55571.53;5116651;28;20106;-78
2023/05/12 00:36:41;;;;;;;6.80;5.10;;;;;;;-140.66;100.00;55571.53;5102037;28;20509;-79
2023/05/12 00:39:26;;;;;;;8.95;5.80;;;;;;;-140.66;100.00;55571.53;5102967;28;20051;-79
2023/05/12 00:42:12;;;;;;;10.60;6.05;;;;;;;-140.66;100.00;55571.53;5106621;28;20049;-77
2023/05/12 00:44:58;;;;;;;8.70;5.57;;;;;;;-140.66;100.00;55571.53;5128171;28;20034;-79
2023/05/12 00:47:45;;;;;;;7.95;5.50;;;;;;;-140.66;100.00;55571.53;5111589;28;20023;-77
2023/05/12 00:50:31;;;;;;;8.05;5.38;;;;;;;-140.66;100.00;55571.53;5106203;28;20026;-79
2023/05/12 00:53:17;;;;;;;7.45;5.90;;;;;;;-140.66;100.00;55571.53;5116493;28;20054;-79
2023/05/12 00:56:03;;;;;;;11.93;6.25;;;;;;;-140.66;100.00;55571.53;5116762;28;20092;-79
2023/05/12 00:58:49;;;;;;;9.98;5.85;;;;;;;-140.66;100.00;55571.53;5102085;28;20027;-79
2023/05/12 01:01:35;;;;;;;7.78;5.97;;;;;;;-140.66;100.00;55571.53;5116883;28;20368;-78
2023/05/12 01:04:21;;;;;;;10.88;6.13;;;;;;;-140.66;100.00;55571.53;5102099;28;20528;-80
2023/05/12 01:07:20;;;;;;;10.20;6.22;;;;;;;-140.66;100.00;55571.53;5116879;28;20024;-78
2023/05/12 01:10:20;;;;;;;11.88;6.22;;;;;;;-140.66;100.00;55571.53;5117521;28;20488;-79
2023/05/12 01:13:06;;;;;;;9.50;6.30;;;;;;;-140.66;100.00;55571.53;5101612;28;20031;-76
2023/05/12 01:15:54;;;;;;;8.00;5.32;;;;;;;-140.66;100.00;55571.53;5101692;28;20336;-75
2023/05/12 01:18:48;;;;;;;10.15;5.80;;;;;;;-140.66;100.00;55571.53;5102509;28;20027;-76
2023/05/12 01:21:33;;;;;;;8.15;6.18;;;;;;;-140.66;100.00;55571.53;5115594;28;20027;-77
2023/05/12 01:24:22;;;;;;;12.02;6.07;;;;;;;-140.66;100.00;55571.53;5102400;28;20039;-77
2023/05/12 01:27:09;;;;;;;12.05;6.10;;;;;;;-140.66;100.00;55571.53;5116273;28;20102;-75
2023/05/12 01:29:57;;;;;;;9.45;6.40;;;;;;;-140.66;100.00;55571.53;5115683;28;20122;-77
2023/05/12 01:32:44;;;;;;;10.40;6.18;;;;;;;-140.66;100.00;55571.53;5115852;28;20024;-75
2023/05/12 01:35:29;;;;;;;11.73;6.28;;;;;;;-140.66;100.00;55571.53;5101900;28;20089;-76
2023/05/12 01:38:15;;;;;;;12.60;6.10;;;;;;;-140.66;100.00;55571.53;5101485;28;20023;-76
2023/05/12 01:41:01;;;;;;;12.23;6.57;;;;;;;-140.66;100.00;55571.53;5115920;28;20042;-75
2023/05/12 01:43:47;;;;;;;8.05;5.65;;;;;;;-140.66;100.00;55571.53;5115738;28;20103;-76
2023/05/12 01:46:32;;;;;;;11.38;5.47;;;;;;;-140.66;100.00;55571.53;5101502;28;20483;-76
2023/05/12 01:49:18;;;;;;;10.02;5.63;;;;;;;-140.66;100.00;55571.53;5115069;28;20439;-76
2023/05/12 01:52:04;;;;;;;7.78;5.32;;;;;;;-140.66;100.00;55571.53;5115399;28;20099;-76
2023/05/12 01:54:50;;;;;;;8.73;5.65;;;;;;;-140.66;100.00;55571.53;5115688;28;20065;-77
2023/05/12 01:57:36;;;;;;;9.85;6.13;;;;;;;-140.66;100.00;55571.53;5115643;28;20443;-76
2023/05/12 02:00:22;;;;;;;8.20;5.50;;;;;;;-140.66;100.00;55571.53;5099870;28;20027;-77
2023/05/12 02:03:07;;;;;;;10.07;6.38;;;;;;;-140.66;100.00;55571.53;5115116;28;20058;-76
2023/05/12 02:05:53;;;;;;;9.93;6.55;;;;;;;-140.66;100.00;55571.53;5101120;28;20047;-74
2023/05/12 02:08:39;;;;;;;12.45;6.43;;;;;;;-140.66;100.00;55571.53;5115370;28;20054;-77
2023/05/12 02:11:25;;;;;;;10.55;6.90;;;;;;;-140.66;100.00;55571.53;5115526;28;20027;-75
2023/05/12 02:14:10;;;;;;;9.80;7.00;;;;;;;-140.66;100.00;55571.53;5100924;28;20028;-77
2023/05/12 02:16:56;;;;;;;8.55;6.32;;;;;;;-140.66;100.00;55571.53;5114808;28;20452;-76
2023/05/12 02:19:42;;;;;;;9.20;7.03;;;;;;;-140.66;100.00;55571.53;5115554;28;20053;-76
2023/05/12 02:22:28;;;;;;;8.90;6.22;;;;;;;-140.66;100.00;55571.53;5115505;28;20028;-75
2023/05/12 02:25:13;;;;;;;8.82;6.82;;;;;;;-140.66;100.00;55571.53;5114479;28;20123;-76
2023/05/12 02:27:59;;;;;;;7.95;6.63;;;;;;;-140.66;100.00;55571.53;5114375;28;20056;-77
2023/05/12 02:30:47;;;;;;;8.63;6.32;;;;;;;-140.66;100.00;55571.53;5103016;28;20024;-75
2023/05/12 02:33:33;;;;;;;9.10;6.47;;;;;;;-140.66;100.00;55571.53;5136944;28;20429;-75
2023/05/12 02:36:19;;;;;;;9.02;6.70;;;;;;;-140.66;100.00;55571.53;5123440;28;20110;-77
2023/05/12 02:39:04;;;;;;;12.10;6.80;;;;;;;-140.66;100.00;55571.53;5115062;28;20042;-77
2023/05/12 02:41:50;;;;;;;11.38;7.88;;;;;;;-140.66;100.00;55571.53;5114793;28;20031;-76
2023/05/12 02:44:36;;;;;;;10.80;6.82;;;;;;;-140.66;100.00;55571.53;5114792;28;20027;-76
2023/05/12 02:47:22;;;;;;;9.77;6.70;;;;;;;-140.66;100.00;55571.53;5114502;28;20404;-75
2023/05/12 02:50:08;;;;;;;10.82;7.15;;;;;;;-140.66;100.00;55571.53;5117769;28;20153;-76
2023/05/12 02:52:54;;;;;;;9.93;6.50;;;;;;;-140.66;100.00;55571.53;5127269;28;20032;-76
2023/05/12 02:55:39;;;;;;;8.40;6.53;;;;;;;-140.66;100.00;55571.53;5116303;28;20101;-76
2023/05/12 02:58:25;;;;;;;9.63;7.10;;;;;;;-140.66;100.00;55571.53;5114240;28;20027;-76
2023/05/12 03:01:11;;;;;;;9.40;6.93;;;;;;;-140.66;100.00;55571.53;5117268;28;20019;-77
2023/05/12 03:03:57;;;;;;;10.65;7.07;;;;;;;-140.66;100.00;55571.53;5104779;28;20360;-76
2023/05/12 03:06:42;;;;;;;9.70;7.15;;;;;;;-140.66;100.00;55571.53;5105181;28;20039;-76
2023/05/12 03:09:28;;;;;;;13.45;6.85;;;;;;;-140.66;100.00;55571.53;5118422;28;20043;-75
2023/05/12 03:12:14;;;;;;;15.95;8.15;;;;;;;-140.66;100.00;55571.53;5104443;28;20488;-76
2023/05/12 03:15:00;;;;;;;10.77;7.47;;;;;;;-140.66;100.00;55571.53;5118579;28;20099;-76
2023/05/12 03:17:46;;;;;;;12.20;7.70;;;;;;;-140.66;100.00;55571.53;5118105;28;20038;-75
2023/05/12 03:20:32;;;;;;;13.80;8.18;;;;;;;-140.66;100.00;55571.53;5118353;28;20027;-76
2023/05/12 03:23:17;;;;;;;10.50;7.38;;;;;;;-140.66;100.00;55571.53;5118463;28;20024;-75
2023/05/12 03:26:03;;;;;;;15.35;8.25;;;;;;;-140.66;100.00;55571.53;5104373;28;20112;-76
2023/05/12 03:28:49;;;;;;;9.93;7.50;;;;;;;-140.66;100.00;55571.53;5117657;28;20055;-76
2023/05/12 03:31:35;;;;;;;9.48;7.38;;;;;;;-140.66;100.00;55571.53;5117905;28;20066;-75
2023/05/12 03:34:20;;;;;;;13.90;8.13;;;;;;;-140.66;100.00;55571.53;5104463;28;20055;-76
2023/05/12 03:37:06;;;;;;;14.77;8.20;;;;;;;-140.66;100.00;55571.53;5103956;28;20379;-74
2023/05/12 03:39:54;;;;;;;13.95;8.85;;;;;;;-140.66;100.00;55571.53;5119130;28;20024;-76
2023/05/12 03:42:40;;;;;;;13.32;8.80;;;;;;;-140.66;100.00;55571.53;5104778;28;20023;-77
2023/05/12 03:45:26;;;;;;;13.07;8.40;;;;;;;-140.66;100.00;55571.53;5104570;28;20020;-76
2023/05/12 03:48:12;;;;;;;12.20;8.55;;;;;;;-140.66;100.00;55571.53;5103431;28;20039;-76
2023/05/12 03:50:57;;;;;;;11.80;8.98;;;;;;;-140.66;100.00;55571.53;5117642;28;20124;-76
2023/05/12 03:53:46;;;;;;;15.38;9.68;;;;;;;-140.66;100.00;55571.53;5117829;28;20019;-76
2023/05/12 03:56:32;;;;;;;16.05;9.30;;;;;;;-140.66;100.00;55571.53;5103611;28;20024;-76
2023/05/12 03:59:18;;;;;;;15.02;9.02;;;;;;;-140.66;100.00;55571.53;5104141;28;20019;-75
2023/05/12 04:02:06;;;;;;;13.82;8.75;;;;;;;-140.66;100.00;55571.53;5117647;28;20084;-75
2023/05/12 04:04:52;;;;;;;18.50;9.27;;;;;;;-140.66;100.00;55571.53;5103631;28;20371;-76
2023/05/12 04:07:38;;;;;;;14.68;9.25;;;;;;;-140.66;100.00;55571.53;5117530;28;20016;-75
2023/05/12 04:10:23;;;;;;;12.68;8.95;;;;;;;-140.66;100.00;55571.53;5117381;28;20027;-76
2023/05/12 04:13:09;;;;;;;14.50;8.93;;;;;;;-140.66;100.00;55571.53;5103490;28;20436;-76
2023/05/12 04:15:56;;;;;;;18.73;8.70;;;;;;;-140.66;100.00;55571.53;5116916;28;20114;-78
2023/05/12 04:18:42;;;;;;;12.85;8.48;;;;;;;-140.66;100.00;55571.53;5118816;28;20107;-77
2023/05/12 04:21:27;;;;;;;13.63;9.10;;;;;;;-140.66;100.00;55571.53;5117766;28;20119;-78
2023/05/12 04:24:13;;;;;;;14.52;8.63;;;;;;;-140.66;100.00;55571.53;5117776;28;20023;-77
2023/05/12 04:26:59;;;;;;;12.63;8.55;;;;;;;-140.66;100.00;55571.53;5102935;28;20027;-77
2023/05/12 04:29:45;;;;;;;18.58;9.60;;;;;;;-140.66;100.00;55571.53;5076219;28;20130;-77
2023/05/12 04:32:30;;;;;;;15.27;8.73;;;;;;;-140.66;100.00;55571.53;5076564;28;20024;-76
2023/05/12 04:35:16;;;;;;;16.27;8.85;;;;;;;-140.66;100.00;55571.53;5062663;28;20071;-76
2023/05/12 04:38:02;;;;;;;17.75;9.63;;;;;;;-140.66;100.00;55571.53;5076666;28;20021;-77
2023/05/12 04:40:48;;;;;;;13.60;8.65;;;;;;;-140.66;100.00;55571.53;5075574;28;20024;-77
2023/05/12 04:43:33;;;;;;;13.50;8.25;;;;;;;-140.66;100.00;55571.53;5061862;28;20036;-76
2023/05/12 04:46:19;;;;;;;13.82;8.98;;;;;;;-140.66;100.00;55571.53;5063112;28;20046;-77
2023/05/12 04:49:05;;;;;;;12.82;8.50;;;;;;;-140.66;100.00;55571.53;5077872;28;20346;-77
2023/05/12 04:51:51;;;;;;;15.85;8.25;;;;;;;-140.66;100.00;55571.53;5076246;28;20024;-76
2023/05/12 04:54:37;;;;;;;21.58;8.30;;;;;;;-140.66;100.00;55571.53;5077333;28;20024;-77
2023/05/12 04:57:23;;;;;;;15.45;8.90;;;;;;;-140.66;100.00;55571.53;5063259;28;20468;-77
2023/05/12 05:00:10;;;;;;;20.05;9.18;;;;;;;-140.66;100.00;55571.53;5075867;28;20503;-76
2023/05/12 05:02:55;;;;;;;13.13;9.02;;;;;;;-140.66;100.00;55571.53;5061732;28;20396;-76
2023/05/12 05:05:41;;;;;;;14.27;9.13;;;;;;;-140.66;100.00;55571.53;5077244;28;20039;-77
2023/05/12 05:08:27;;;;;;;17.60;9.55;;;;;;;-140.66;100.00;55571.53;5061479;28;20028;-76
2023/05/12 05:11:13;;;;;;;16.38;9.85;;;;;;;-140.66;100.00;55571.53;5074959;28;20025;-77
2023/05/12 05:13:58;;;;;;;11.80;9.07;;;;;;;-140.66;100.00;55571.53;5076803;28;20459;-77
2023/05/12 05:16:45;;;;;;;15.85;9.70;;;;;;;-140.66;100.00;55571.53;5061262;28;20051;-76
2023/05/12 05:19:30;;;;;;;12.65;9.82;;;;;;;-140.66;100.00;55571.53;5061138;28;20507;-76
2023/05/12 05:22:19;;;;;;;15.13;9.70;;;;;;;-140.66;100.00;55571.53;5059712;28;20020;-77
2023/05/12 05:25:06;;;;;;;15.95;10.02;;;;;;;-140.66;100.00;55571.53;5075987;28;20093;-77
2023/05/12 05:27:51;;;;;;;21.00;10.63;;;;;;;-140.66;100.00;55571.53;5066529;28;20052;-78
2023/05/12 05:30:37;;;;;;;18.73;10.90;;;;;;;-140.66;100.00;55571.53;5096204;28;20035;-75
2023/05/12 05:33:23;;;;;;;18.50;10.70;;;;;;;-140.66;100.00;55571.53;5096436;28;20028;-77
2023/05/12 05:36:09;;;;;;;23.33;10.60;;;;;;;-140.66;100.00;55571.53;5095530;28;20051;-76
2023/05/12 05:38:55;;;;;;;16.13;10.23;;;;;;;-140.66;100.00;55571.53;5081241;28;20542;-77
2023/05/12 05:41:41;;;;;;;21.27;10.88;;;;;;;-140.66;100.00;55571.53;5079463;28;20039;-78
2023/05/12 05:44:26;;;;;;;19.85;10.02;;;;;;;-140.66;100.00;55571.53;5095594;28;20035;-77
2023/05/12 05:47:12;;;;;;;18.75;11.05;;;;;;;-140.66;100.00;55571.53;5095674;28;20101;-77
2023/05/12 05:49:58;;;;;;;22.75;10.75;;;;;;;-140.66;100.00;55571.53;5081121;28;20020;-76
2023/05/12 05:52:43;;;;;;;19.92;10.10;;;;;;;-140.66;100.00;55571.53;5095648;28;20039;-76
2023/05/12 05:55:29;;;;;;;27.38;11.38;;;;;;;-140.66;100.00;55571.53;5081705;28;20352;-75
2023/05/12 05:58:15;;;;;;;17.67;10.98;;;;;;;-140.66;100.00;55571.53;5081149;28;20451;-77
2023/05/12 06:01:01;;;;;;;22.52;10.38;;;;;;;-140.66;100.00;55571.53;5080077;28;20436;-77
2023/05/12 06:03:47;;;;;;;18.92;9.80;;;;;;;-140.66;100.00;55571.53;5094851;28;20093;-77
2023/05/12 06:06:32;;;;;;;16.15;9.77;;;;;;;-140.66;100.00;55571.53;5108520;28;20117;-77
2023/05/12 06:09:18;;;;;;;25.00;10.38;;;;;;;-140.66;100.00;55571.53;5094626;28;20027;-77
2023/05/12 06:12:04;;;;;;;25.58;10.70;;;;;;;-140.66;100.00;55571.53;5093720;28;20028;-78
2023/05/12 06:14:50;;;;;;;17.42;10.00;;;;;;;-140.66;100.00;55571.53;5081964;28;20107;-77
2023/05/12 06:17:36;;;;;;;19.40;10.32;;;;;;;-140.66;100.00;55571.53;5094950;28;20024;-77
2023/05/12 06:20:22;;;;;;;20.15;10.65;;;;;;;-140.66;100.00;55571.53;5094593;28;20046;-77
2023/05/12 06:23:08;;;;;;;24.35;10.95;;;;;;;-140.66;100.00;55571.53;5082293;28;20024;-77
2023/05/12 06:25:53;;;;;;;20.77;10.82;;;;;;;-140.66;100.00;55571.53;5095675;28;20028;-77
2023/05/12 06:28:39;;;;;;;22.67;10.32;;;;;;;-140.66;100.00;55571.53;5094423;28;20048;-79
2023/05/12 06:31:25;;;;;;;17.58;9.75;;;;;;;-140.66;100.00;55571.53;5094994;28;20049;-77
2023/05/12 06:34:11;;;;;;;30.52;11.15;;;;;;;-140.66;100.00;55571.53;5094537;28;20401;-76
2023/05/12 06:36:56;;;;;;;20.67;9.38;;;;;;;-140.66;100.00;55571.53;5094632;28;20035;-78
2023/05/12 06:39:42;;;;;;;20.20;10.38;;;;;;;-140.66;100.00;55571.53;5081040;28;20368;-79
2023/05/12 06:42:28;;;;;;;20.00;9.63;;;;;;;-140.66;100.00;55571.53;5095134;28;20024;-77
2023/05/12 06:45:13;;;;;;;16.75;8.98;;;;;;;-140.66;100.00;55571.53;5081981;28;20107;-77
2023/05/12 06:48:00;;;;;;;18.60;9.43;;;;;;;-140.66;100.00;55571.53;5093783;28;20020;-77
2023/05/12 06:50:46;;;;;;;14.35;8.60;;;;;;;-140.66;100.00;55571.53;5080791;28;20058;-76
2023/05/12 06:53:32;;;;;;;16.42;9.00;;;;;;;-140.66;100.00;55571.53;5081001;28;20028;-76
2023/05/12 06:56:18;;;;;;;15.25;8.77;;;;;;;-140.66;100.00;55571.53;5094893;28;20024;-76
2023/05/12 06:59:04;;;;;;;13.52;8.20;;;;;;;-140.66;100.00;55571.53;5096315;28;20122;-77
2023/05/12 07:01:49;;;;;;;18.48;7.40;;;;;;;-140.66;100.00;55571.53;5080196;28;20176;-77
2023/05/12 07:04:35;;;;;;;13.88;7.55;;;;;;;-140.66;100.00;55571.53;5080613;28;20329;-77
2023/05/12 07:07:21;;;;;;;15.13;6.78;;;;;;;-140.66;100.00;55571.53;5080470;28;20035;-76
2023/05/12 07:10:07;;;;;;;14.40;7.50;;;;;;;-140.66;100.00;55571.53;5081015;28;20028;-76
2023/05/12 07:12:53;;;;;;;16.48;7.85;;;;;;;-140.66;100.00;55571.53;5095951;28;20059;-76
2023/05/12 07:15:39;;;;;;;12.88;7.97;;;;;;;-140.66;100.00;55571.53;5101187;28;20368;-76
2023/05/12 07:18:25;;;;;;;16.30;6.25;;;;;;;-140.66;100.00;55571.53;5088171;28;20112;-75
2023/05/12 07:21:11;;;;;;;11.90;6.50;;;;;;;-140.66;100.00;55571.53;5087726;28;20057;-78
2023/05/12 07:23:58;;;;;;;6.65;5.65;;;;;;;-140.66;100.00;55571.53;5082760;28;20028;-77
2023/05/12 07:26:43;;;;;;;9.65;5.80;;;;;;;-140.66;100.00;55571.53;5095028;28;20034;-76
2023/05/12 07:29:29;;;;;;;12.55;6.40;;;;;;;-140.66;100.00;55571.53;5079269;28;20121;-77
2023/05/12 07:32:15;;;;;;;17.20;5.75;;;;;;;-140.66;100.00;55571.53;5080858;28;20028;-77
2023/05/12 07:35:02;;;;;;;8.82;5.38;;;;;;;-140.66;100.00;55571.53;5095699;28;20117;-76
2023/05/12 07:37:48;;;;;;;13.60;5.55;;;;;;;-140.66;100.00;55571.53;5094310;28;20077;-77
2023/05/12 07:40:34;;;;;;;9.63;6.10;;;;;;;-140.66;100.00;55571.53;5079575;28;20363;-77
2023/05/12 07:43:20;;;;;;;11.98;5.22;;;;;;;-140.66;100.00;55571.53;5079775;28;20032;-77
2023/05/12 07:46:06;;;;;;;7.88;4.60;;;;;;;-140.66;100.00;55571.53;5079751;28;20066;-76
2023/05/12 07:48:51;;;;;;;8.98;4.80;;;;;;;-140.66;100.00;55571.53;5097755;28;20044;-75
2023/05/12 07:51:38;;;;;;;14.70;5.20;;;;;;;-140.66;100.00;55571.53;5097963;28;20016;-76
2023/05/12 07:54:23;;;;;;;9.82;5.60;;;;;;;-140.66;100.00;55571.53;5097409;28;20444;-76
2023/05/12 07:57:09;;;;;;;9.55;4.45;;;;;;;-140.66;100.00;55571.53;5097695;28;20050;-77
2023/05/12 07:59:55;;;;;;;8.10;5.03;;;;;;;-140.66;100.00;55571.53;5097359;28;20028;-77
2023/05/12 08:02:41;;;;;;;11.52;5.40;;;;;;;-140.66;100.00;55571.53;5084143;28;20024;-76
2023/05/12 08:05:27;;;;;;;10.30;4.35;;;;;;;-140.66;100.00;55571.53;5096981;28;20106;-76
2023/05/12 08:08:15;;;;;;;11.20;5.15;;;;;;;-140.66;100.00;55571.53;5083781;28;20024;-76
2023/05/12 08:11:02;;;;;;;7.05;4.22;;;;;;;-140.66;100.00;55571.53;5097499;28;20426;-77
2023/05/12 08:13:47;;;;;;;8.70;4.13;;;;;;;-140.66;100.00;55571.53;5096451;28;20024;-76
2023/05/12 08:16:33;;;;;;;6.85;4.35;;;;;;;-140.66;100.00;55571.53;5097529;28;20028;-76
2023/05/12 08:19:19;;;;;;;8.60;4.43;;;;;;;-140.66;100.00;55571.53;5097167;28;20028;-76
2023/05/12 08:22:04;;;;;;;8.57;5.00;;;;;;;-140.66;100.00;55571.53;5096672;28;20361;-78
2023/05/12 08:24:51;;;;;;;6.60;4.03;;;;;;;-140.66;100.00;55571.53;5083964;28;20055;-76
2023/05/12 08:27:37;;;;;;;4.88;3.95;;;;;;;-140.66;100.00;55571.53;5096922;28;20130;-75
2023/05/12 08:30:23;;;;;;;4.70;3.90;;;;;;;-140.66;100.00;55571.53;5096222;28;20060;-77
2023/05/12 08:33:08;;;;;;;7.38;4.25;;;;;;;-140.66;100.00;55571.53;5083203;28;20034;-77
2023/05/12 08:35:54;;;;;;;8.68;4.22;;;;;;;-140.66;100.00;55571.53;5096774;28;20031;-76
2023/05/12 08:38:40;;;;;;;10.27;4.97;;;;;;;-140.66;100.00;55571.53;5082667;28;20071;-76
2023/05/12 08:41:54;;;;;;;6.57;4.10;;;;;;;-140.66;100.00;55571.53;5096187;28;20051;-75
2023/05/12 08:44:40;;;;;;;7.18;4.40;;;;;;;-140.66;100.00;55571.53;5082780;28;20330;-76
2023/05/12 08:47:27;;;;;;;9.15;4.20;;;;;;;-140.66;100.00;55571.53;5097113;28;20028;-77
2023/05/12 08:50:16;;;;;;;7.95;4.00;;;;;;;-140.66;100.00;55571.53;5082093;28;20051;-76
2023/05/12 08:53:04;;;;;;;5.20;4.03;;;;;;;-140.66;100.00;55571.53;5083235;28;20020;-76
2023/05/12 08:55:51;;;;;;;15.98;4.30;;;;;;;-140.66;100.00;55571.53;5095964;28;20020;-76
2023/05/12 08:58:37;;;;;;;6.70;4.18;;;;;;;-140.66;100.00;55571.53;5096236;28;20039;-76
2023/05/12 09:01:24;;;;;;;7.65;4.22;;;;;;;-140.66;100.00;55571.53;5096402;28;20403;-76
2023/05/12 09:04:10;;;;;;;8.60;4.95;;;;;;;-140.66;100.00;55571.53;5096181;28;20039;-76
2023/05/12 09:06:57;;;;;;;5.15;4.35;;;;;;;-140.66;100.00;55571.53;5082615;28;20031;-75
2023/05/12 09:09:44;;;;;;;4.97;3.90;;;;;;;-140.66;100.00;55571.53;5095703;28;20096;-75
2023/05/12 09:12:35;;;;;;;9.48;4.20;;;;;;;-140.66;100.00;55571.53;5096496;28;20016;-76
2023/05/12 09:15:30;;;;;;;9.75;4.30;;;;;;;-140.66;100.00;55571.53;5096100;28;20390;-76
2023/05/12 09:18:15;;;;;;;9.02;3.70;;;;;;;-140.66;100.00;55571.53;5082719;28;20020;-75
2023/05/12 09:21:01;;;;;;;9.23;4.43;;;;;;;-140.66;100.00;55571.53;5082406;28;20035;-77
2023/05/12 09:23:59;;;;;;;14.18;4.30;;;;;;;-140.66;100.00;55571.53;5095825;28;20031;-77
2023/05/12 09:26:52;;;;;;;7.22;3.72;;;;;;;-140.66;100.00;55571.53;5082150;28;20066;-77
2023/05/12 09:29:48;;;;;;;12.05;3.90;;;;;;;-140.66;100.00;55571.53;5061807;28;20094;-76
2023/05/12 09:32:35;;;;;;;8.13;4.45;;;;;;;-140.66;100.00;55571.53;5075839;28;20460;-76
2023/05/12 09:35:21;;;;;;;8.35;4.30;;;;;;;-140.66;100.00;55571.53;5061265;28;20119;-77
2023/05/12 09:38:13;;;;;;;6.03;4.03;;;;;;;-140.66;100.00;55571.53;5061151;28;20120;-77
2023/05/12 09:40:59;;;;;;;8.43;4.30;;;;;;;-140.66;100.00;55571.53;5075279;28;20067;-77
2023/05/12 09:43:45;;;;;;;5.88;4.20;;;;;;;-140.66;100.00;55571.53;5062274;28;20024;-76
2023/05/12 09:46:31;;;;;;;11.52;4.13;;;;;;;-140.66;100.00;55571.53;5076828;28;20089;-76
2023/05/12 09:49:19;;;;;;;18.92;4.35;;;;;;;-140.66;100.00;55571.53;5076136;28;20521;-77
2023/05/12 09:52:05;;;;;;;10.88;4.20;;;;;;;-140.66;100.00;55571.53;5075106;28;20047;-77
2023/05/12 09:54:51;;;;;;;5.68;3.88;;;;;;;-140.66;100.00;55571.53;5076366;28;20091;-76
2023/05/12 09:57:45;;;;;;;12.30;4.00;;;;;;;-140.66;100.00;55571.53;5074858;28;20028;-76
2023/05/12 10:00:32;;;;;;;6.35;4.10;;;;;;;-140.66;100.00;55571.53;5060339;28;20364;-76
2023/05/12 10:03:24;;;;;;;8.30;3.90;;;;;;;-140.66;100.00;55571.53;5075058;28;20468;-76
2023/05/12 10:06:15;;;;;;;12.68;4.50;;;;;;;-140.66;100.00;55571.53;5074720;28;20040;-82
2023/05/12 10:09:14;;;;;;;7.72;4.10;;;;;;;-140.66;100.00;55571.53;5075164;28;20028;-81
2023/05/12 10:12:02;;;;;;;11.30;3.65;;;;;;;-140.66;100.00;55571.53;5059874;28;20112;-81
2023/05/12 10:14:48;;;;;;;7.90;3.90;;;;;;;-140.66;100.00;55571.53;5059689;28;20028;-82
2023/05/12 10:17:35;;;;;;;7.05;3.70;;;;;;;-140.66;100.00;55571.53;5075629;28;20081;-81
2023/05/12 10:20:22;;;;;;;12.10;3.75;;;;;;;-140.66;100.00;55571.53;5059921;28;20130;-81
2023/05/12 10:23:11;;;;;;;7.75;4.10;;;;;;;-140.66;100.00;55571.53;5074637;28;20043;-81
2023/05/12 10:26:00;;;;;;;6.72;3.75;;;;;;;-140.66;100.00;55571.53;5077997;28;20044;-81
2023/05/12 10:28:47;;;;;;;6.75;3.50;;;;;;;-140.66;100.00;55571.53;5073938;28;20062;-79
2023/05/12 10:31:35;;;;;;;9.73;4.10;;;;;;;-140.66;100.00;55571.53;5080112;28;20036;-78
2023/05/12 10:34:21;;;;;;;10.48;3.70;;;;;;;-140.66;100.00;55571.53;5081401;28;20081;-78
2023/05/12 10:37:09;;;;;;;10.07;4.05;;;;;;;-140.66;100.00;55571.53;5081064;28;20035;-77
2023/05/12 10:39:59;;;;;;;13.63;4.75;;;;;;;-140.66;100.00;55571.53;5095806;28;20466;-78
2023/05/12 10:42:50;;;;;;;7.90;3.90;;;;;;;-140.66;100.00;55571.53;5095563;28;20085;-78
2023/05/12 10:45:36;;;;;;;8.90;3.25;;;;;;;-140.66;100.00;55571.53;5081203;28;20055;-78
2023/05/12 10:48:22;;;;;;;8.80;3.50;;;;;;;-140.66;100.00;55571.53;5094551;28;20042;-78
2023/05/12 10:51:09;;;;;;;7.88;3.50;;;;;;;-140.66;100.00;55571.53;5080604;28;20467;-78
2023/05/12 10:53:56;;;;;;;7.05;3.22;;;;;;;-140.66;100.00;55571.53;5079478;28;20024;-77
2023/05/12 10:56:43;;;;;;;5.75;3.53;;;;;;;-140.66;100.00;55571.53;5079664;28;20089;-78
2023/05/12 10:59:29;;;;;;;4.80;3.50;;;;;;;-140.66;100.00;55571.53;5089283;28;20028;-78
2023/05/12 11:02:17;;;;;;;12.00;3.97;;;;;;;-140.66;100.00;55571.53;5072980;28;20020;-79
2023/05/12 11:05:09;;;;;;;8.90;3.88;;;;;;;-140.66;100.00;55571.53;5079346;28;20467;-79
2023/05/12 11:07:55;;;;;;;8.25;3.20;;;;;;;-140.66;100.00;55571.53;5113178;28;20024;-73
2023/05/12 11:10:41;;;;;;;9.20;3.33;;;;;;;-140.66;100.00;55571.53;5113784;28;20019;-78
2023/05/12 11:13:34;;;;;;;6.97;3.25;;;;;;;-140.66;100.00;55571.53;5099518;28;20041;-78
2023/05/12 11:16:20;;;;;;;9.70;3.42;;;;;;;-140.66;100.00;55571.53;5099648;28;20035;-75
2023/05/12 11:19:05;;;;;;;5.25;3.38;;;;;;;-140.66;100.00;55571.53;5099863;28;20085;-78
2023/05/12 11:21:51;;;;;;;7.47;3.40;;;;;;;-140.66;100.00;55571.53;5115659;28;20088;-78
2023/05/12 11:24:39;;;;;;;11.35;3.28;;;;;;;-140.66;100.00;55571.53;5103545;28;20051;-77
2023/05/12 11:27:25;;;;;;;5.15;3.03;;;;;;;-140.66;100.00;55571.53;5102610;28;20038;-77
2023/05/12 11:30:11;;;;;;;7.45;3.28;;;;;;;-140.66;100.00;55571.53;5117713;28;20023;-78
2023/05/12 11:33:01;;;;;;;5.43;3.10;;;;;;;-140.66;100.00;55571.53;5117631;28;20024;-78
2023/05/12 11:35:48;;;;;;;3.60;2.88;;;;;;;-140.66;100.00;55571.53;5117329;28;20485;-76
2023/05/12 11:38:34;;;;;;;6.30;3.00;;;;;;;-140.66;100.00;55571.53;5117742;28;20161;-77
2023/05/12 11:41:25;;;;;;;6.75;3.15;;;;;;;-140.66;100.00;55571.53;5102920;28;20521;-78
2023/05/12 11:44:18;;;;;;;7.53;3.25;;;;;;;-140.66;100.00;55571.53;5104085;28;20106;-77
2023/05/12 11:47:12;;;;;;;5.18;2.88;;;;;;;-140.66;100.00;55571.53;5103712;28;20028;-77
2023/05/12 11:49:58;;;;;;;5.68;3.15;;;;;;;-140.66;100.00;55571.53;5103540;28;20028;-77
2023/05/12 11:52:44;;;;;;;5.38;3.53;;;;;;;-140.66;100.00;55571.53;5118019;28;20084;-77
2023/05/12 11:55:30;;;;;;;6.40;3.30;;;;;;;-140.66;100.00;55571.53;5117580;28;20443;-77
2023/05/12 11:58:29;;;;;;;5.93;2.97;;;;;;;-140.66;100.00;55571.53;5117187;28;20062;-79
2023/05/12 12:01:14;;;;;;;12.85;3.13;;;;;;;-140.66;100.00;55571.53;5116895;28;20085;-76
2023/05/12 12:04:00;;;;;;;11.25;3.60;;;;;;;-140.66;100.00;55571.53;5092527;27;20028;-77
2023/05/12 12:06:47;;;;;;;7.35;2.95;;;;;;;-140.66;100.00;55571.53;5078527;28;20025;-77
2023/05/12 12:09:36;;;;;;;9.25;3.28;;;;;;;-140.66;100.00;55571.53;5089996;28;20029;-77
2023/05/12 12:12:22;;;;;;;6.53;3.33;;;;;;;-140.66;100.00;55571.53;5063862;28;20020;-77
2023/05/12 12:15:09;;;;;;;5.78;3.33;;;;;;;-140.66;100.00;55571.53;5077839;28;20028;-77
2023/05/12 12:17:56;;;;;;;8.93;3.10;;;;;;;-140.66;100.00;55571.53;5089244;28;20355;-77
2023/05/12 12:20:42;;;;;;;5.13;2.70;;;;;;;-140.66;100.00;55571.53;5061986;28;20469;-77
2023/05/12 12:23:28;;;;;;;6.35;3.00;;;;;;;-140.66;100.00;55571.53;5078363;28;20025;-77
2023/05/12 12:26:19;;;;;;;6.13;2.83;;;;;;;-140.66;100.00;55571.53;5089326;28;20032;-78
2023/05/12 12:29:05;;;;;;;9.73;3.20;;;;;;;-140.66;100.00;55571.53;5061604;28;20430;-75
2023/05/12 12:31:50;;;;;;;14.10;3.67;;;;;;;-140.66;100.00;55571.53;5062310;28;20016;-78